Time;durP1;ratioP1;P1;durP2;ratioP2;P2;SDS_P1;SDS_P2;PMS_P1;PMS_P2;Temp;Humidity;BMP_temperature;BMP_pressure;BME280_temperature;BME280_humidity;BME280_pressure;Samples;Min_cycle;Max_cycle;Signal;HPM_P1;HPM_P2
2022/02/19 00:00:50;;;;;;;;;2.00;0.00;;;;;8.72;56.10;101350.09;5045009;28;52745;-75
2022/02/19 00:03:16;;;;;;;;;3.00;0.00;;;;;8.67;55.94;101349.06;5048259;28;47338;-75
2022/02/19 00:05:42;;;;;;;;;4.67;0.00;;;;;8.69;55.82;101357.03;5047332;28;45894;-75
2022/02/19 00:08:08;;;;;;;;;0.33;0.00;;;;;8.66;56.10;101363.09;5044504;28;55658;-75
2022/02/19 00:10:34;;;;;;;;;2.00;0.00;;;;;8.65;56.26;101378.00;5054919;28;45544;-75
2022/02/19 00:12:59;;;;;;;;;4.33;0.00;;;;;8.63;56.33;101374.44;5053620;28;47195;-75
2022/02/19 00:15:25;;;;;;;;;0.00;0.00;;;;;8.62;56.38;101375.28;5047692;28;45455;-75
2022/02/19 00:17:50;;;;;;;;;6.33;1.00;;;;;8.56;56.30;101364.56;5048880;28;45862;-75
2022/02/19 00:20:16;;;;;;;;;5.00;0.00;;;;;8.58;56.61;101381.31;5058862;28;45501;-75
2022/02/19 00:22:41;;;;;;;;;5.00;0.33;;;;;8.59;56.67;101376.94;5056694;28;46521;-75
2022/02/19 00:25:08;;;;;;;;;5.00;0.33;;;;;8.56;56.57;101387.38;5042457;28;59721;-75
2022/02/19 00:27:34;;;;;;;;;0.00;0.00;;;;;8.51;56.99;101396.88;5050094;28;45510;-75
2022/02/19 00:29:59;;;;;;;;;3.00;0.00;;;;;8.47;56.81;101400.25;5055989;28;45518;-75
2022/02/19 00:32:25;;;;;;;;;0.67;0.67;;;;;8.46;56.77;101386.22;5050201;28;46495;-75
2022/02/19 00:34:51;;;;;;;;;0.00;0.00;;;;;8.45;57.01;101391.44;5049996;28;59093;-75
2022/02/19 00:37:16;;;;;;;;;1.00;0.33;;;;;8.45;57.06;101394.09;5042978;28;45599;-75
2022/02/19 00:39:42;;;;;;;;;1.00;0.00;;;;;8.43;57.20;101387.91;5048393;28;45602;-75
2022/02/19 00:42:07;;;;;;;;;0.00;0.00;;;;;8.36;57.19;101395.63;5055939;28;61527;-75
2022/02/19 00:44:33;;;;;;;;;0.00;0.00;;;;;8.39;57.36;101406.22;5053062;28;46604;-75
2022/02/19 00:46:59;;;;;;;;;2.25;0.00;;;;;8.37;57.48;101400.03;5050762;28;45395;-75
2022/02/19 00:49:24;;;;;;;;;2.67;0.00;;;;;8.42;57.17;101407.16;5025482;28;45641;-75
2022/02/19 00:51:50;;;;;;;;;0.00;0.00;;;;;8.38;57.25;101416.69;5039601;28;63696;-75
2022/02/19 00:54:15;;;;;;;;;2.00;0.33;;;;;8.37;57.21;101423.72;5043762;28;55770;-75
2022/02/19 00:56:41;;;;;;;;;0.67;0.00;;;;;8.34;57.20;101417.41;5027689;28;58376;-75
2022/02/19 00:59:06;;;;;;;;;1.00;0.00;;;;;8.28;57.29;101410.25;5053504;28;45189;-75
2022/02/19 01:01:31;;;;;;;;;1.00;0.67;;;;;8.35;57.10;101429.72;5044467;28;60224;-75
2022/02/19 01:03:57;;;;;;;;;1.67;0.00;;;;;8.33;56.97;101427.06;5058597;28;45890;-75
2022/02/19 01:06:22;;;;;;;;;0.00;0.00;;;;;8.33;57.01;101420.91;5041824;28;45238;-75
2022/02/19 01:08:49;;;;;;;;;2.00;0.00;;;;;8.28;57.16;101418.13;5046817;28;45322;-75
2022/02/19 01:11:15;;;;;;;;;1.67;0.00;;;;;8.26;57.05;101419.84;5045027;28;46643;-75
2022/02/19 01:13:40;;;;;;;;;1.67;0.00;;;;;8.26;57.05;101427.72;5061097;28;45379;-75
2022/02/19 01:16:05;;;;;;;;;1.67;0.00;;;;;8.30;56.83;101429.59;5049138;28;47114;-76
2022/02/19 01:18:31;;;;;;;;;2.00;0.00;;;;;8.28;56.90;101426.03;5052634;28;55350;-75
2022/02/19 01:20:56;;;;;;;;;0.33;0.00;;;;;8.25;56.94;101446.06;5043679;28;62310;-75
2022/02/19 01:23:21;;;;;;;;;1.00;1.00;;;;;8.18;57.10;101439.75;5046214;28;55923;-75
2022/02/19 01:25:47;;;;;;;;;1.00;0.00;;;;;8.18;57.00;101444.13;5044407;28;51582;-75
2022/02/19 01:28:12;;;;;;;;;1.67;0.00;;;;;8.19;57.17;101444.16;5055580;28;45644;-75
2022/02/19 01:30:38;;;;;;;;;0.00;0.00;;;;;8.20;57.22;101435.41;5056274;28;61055;-75
2022/02/19 01:33:03;;;;;;;;;0.75;0.75;;;;;8.22;57.05;101441.63;5056546;28;45217;-75
2022/02/19 01:35:28;;;;;;;;;3.00;0.00;;;;;8.19;57.08;101448.53;5045977;28;56958;-75
2022/02/19 01:37:54;;;;;;;;;2.67;0.67;;;;;8.19;57.30;101444.16;5044336;28;47084;-75
2022/02/19 01:40:19;;;;;;;;;2.00;0.00;;;;;8.20;57.39;101451.19;5055238;28;47300;-75
2022/02/19 01:42:45;;;;;;;;;4.25;1.00;;;;;8.25;57.27;101448.72;5049604;28;45485;-75
2022/02/19 01:45:13;;;;;;;;;2.00;0.00;;;;;8.23;57.47;101446.03;5057494;28;45641;-75
2022/02/19 01:47:39;;;;;;;;;6.00;1.00;;;;;8.26;57.33;101453.16;5046984;28;45589;-75
2022/02/19 01:50:05;;;;;;;;;2.00;0.00;;;;;8.23;57.47;101443.41;5057675;28;46638;-75
2022/02/19 01:52:31;;;;;;;;;2.67;0.00;;;;;8.19;57.57;101452.03;5056661;28;45467;-75
2022/02/19 01:54:56;;;;;;;;;1.50;1.00;;;;;8.19;57.83;101461.69;5018039;28;58286;-75
2022/02/19 01:57:23;;;;;;;;;2.25;0.50;;;;;8.12;57.80;101460.59;5034749;28;53950;-75
2022/02/19 01:59:49;;;;;;;;;0.50;0.00;;;;;8.11;58.10;101464.09;5030484;28;46229;-76
2022/02/19 02:02:14;;;;;;;;;0.00;0.00;;;;;8.08;57.76;101454.34;5020925;28;58675;-76
2022/02/19 02:04:41;;;;;;;;;2.75;0.00;;;;;8.13;58.08;101465.00;5046116;28;45207;-75
2022/02/19 02:07:07;;;;;;;;;2.25;0.00;;;;;8.11;58.07;101456.19;5042530;28;45350;-76
2022/02/19 02:09:34;;;;;;;;;0.00;0.00;;;;;8.05;58.16;101456.91;5030229;28;46407;-75
2022/02/19 02:11:59;;;;;;;;;2.25;0.00;;;;;8.06;58.30;101466.56;5012409;28;45478;-75
2022/02/19 02:14:25;;;;;;;;;5.25;0.00;;;;;8.05;58.26;101454.28;5050462;28;45693;-76
2022/02/19 02:16:50;;;;;;;;;2.00;0.00;;;;;7.88;58.23;101437.03;5050697;28;56740;-75
2022/02/19 02:19:15;;;;;;;;;2.25;0.00;;;;;7.97;58.47;101454.88;5048052;28;45452;-75
2022/02/19 02:21:41;;;;;;;;;1.33;0.00;;;;;7.94;58.50;101457.41;5055744;28;46680;-75
2022/02/19 02:24:07;;;;;;;;;2.00;0.00;;;;;7.97;58.82;101475.91;5052920;28;45174;-75
2022/02/19 02:26:32;;;;;;;;;1.00;0.00;;;;;7.95;58.82;101474.97;5047158;28;45641;-75
2022/02/19 02:28:57;;;;;;;;;1.00;0.00;;;;;7.94;58.83;101465.31;5042184;28;46430;-75
2022/02/19 02:31:23;;;;;;;;;1.67;0.00;;;;;7.91;58.78;101470.44;5045334;28;45269;-75
2022/02/19 02:33:49;;;;;;;;;1.00;0.00;;;;;7.91;59.13;101478.34;5052904;28;54465;-75
2022/02/19 02:36:15;;;;;;;;;0.00;0.00;;;;;7.86;58.94;101463.31;5045180;28;45467;-75
2022/02/19 02:38:40;;;;;;;;;0.25;0.00;;;;;7.85;58.90;101473.78;5050488;28;47102;-75
2022/02/19 02:43:41;;;;;;;;;2.00;0.00;;;;;7.79;59.16;101461.31;5094301;22;45635;-75
2022/02/19 02:46:06;;;;;;;;;0.00;0.00;;;;;7.80;59.43;101463.09;5074007;28;45400;-75
2022/02/19 02:48:31;;;;;;;;;1.33;0.00;;;;;7.81;59.35;101477.13;5063205;28;46165;-75
2022/02/19 02:50:57;;;;;;;;;3.50;0.00;;;;;7.80;59.19;101475.38;5064568;28;45446;-75
2022/02/19 02:53:24;;;;;;;;;1.00;0.00;;;;;7.73;59.51;101466.38;5065284;28;45420;-75
2022/02/19 02:55:50;;;;;;;;;2.00;0.00;;;;;7.74;59.66;101467.28;5064388;28;45257;-75
2022/02/19 02:58:15;;;;;;;;;3.00;0.00;;;;;7.70;59.65;101473.28;5076158;28;47686;-75
2022/02/19 03:00:41;;;;;;;;;2.50;0.00;;;;;7.70;59.71;101484.69;5070156;28;58437;-75
2022/02/19 03:03:06;;;;;;;;;1.00;0.67;;;;;7.70;60.10;101483.78;5074521;28;45925;-75
2022/02/19 03:05:31;;;;;;;;;1.00;0.00;;;;;7.68;59.75;101481.13;5065151;28;48359;-75
2022/02/19 03:07:57;;;;;;;;;0.75;0.00;;;;;7.66;59.79;101474.91;5062913;28;58038;-75
2022/02/19 03:10:22;;;;;;;;;5.00;0.00;;;;;7.61;59.74;101476.47;5075392;28;59469;-75
2022/02/19 03:12:47;;;;;;;;;1.00;0.00;;;;;7.57;60.22;101477.25;5074959;28;51955;-75
2022/02/19 03:15:18;;;;;;;;;2.00;0.00;;;;;7.61;59.96;101487.88;5074681;28;45502;-75
2022/02/19 03:17:44;;;;;;;;;0.50;0.00;;;;;7.59;60.21;101499.19;5072555;28;46406;-75
2022/02/19 03:20:10;;;;;;;;;0.00;0.00;;;;;7.58;60.49;101506.19;5066046;27;45398;-75
2022/02/19 03:22:37;;;;;;;;;2.25;0.00;;;;;7.54;60.65;101488.53;5068136;28;45391;-75
2022/02/19 03:25:03;;;;;;;;;0.75;0.00;;;;;7.54;60.45;101501.66;5067907;28;45737;-75
2022/02/19 03:27:28;;;;;;;;;2.00;0.00;;;;;7.57;60.51;101508.78;5067407;28;46732;-75
2022/02/19 03:29:53;;;;;;;;;1.50;0.00;;;;;7.56;60.53;101514.84;5068368;28;45256;-75
2022/02/19 03:32:19;;;;;;;;;0.00;0.00;;;;;7.55;60.71;101511.34;5069468;28;47217;-75
2022/02/19 03:34:44;;;;;;;;;0.00;0.00;;;;;7.55;60.34;101510.44;5075673;28;52436;-75
2022/02/19 03:37:10;;;;;;;;;0.00;0.00;;;;;7.55;60.56;101515.69;5069976;28;63051;-75
2022/02/19 03:39:36;;;;;;;;;1.00;0.00;;;;;7.54;60.80;101516.53;5060615;28;45453;-75
2022/02/19 03:42:01;;;;;;;;;0.50;0.00;;;;;7.51;60.60;101512.09;5072949;28;45502;-75
2022/02/19 03:44:27;;;;;;;;;4.00;0.00;;;;;7.52;60.73;101510.34;5064939;28;45605;-75
2022/02/19 03:46:52;;;;;;;;;0.75;0.00;;;;;7.48;60.45;101508.47;5060464;28;58207;-75
2022/02/19 03:49:17;;;;;;;;;3.00;0.00;;;;;7.44;61.11;101517.94;5073301;28;58555;-75
2022/02/19 03:51:43;;;;;;;;;1.50;0.00;;;;;7.45;60.66;101519.75;5057479;28;48834;-75
2022/02/19 03:54:08;;;;;;;;;3.00;0.00;;;;;7.42;60.84;101519.66;5064242;28;45561;-75
2022/02/19 03:56:34;;;;;;;;;2.25;0.00;;;;;7.40;60.86;101520.41;5067130;28;62102;-75
2022/02/19 03:58:59;;;;;;;;;2.25;0.75;;;;;7.40;60.71;101530.94;5069035;28;45497;-75
2022/02/19 04:01:24;;;;;;;;;1.00;0.00;;;;;7.37;60.98;101529.09;5073691;28;55400;-75
2022/02/19 04:03:50;;;;;;;;;0.00;0.00;;;;;7.39;61.04;101521.25;5057416;28;54255;-75
2022/02/19 04:06:15;;;;;;;;;0.75;0.00;;;;;7.35;61.10;101523.81;5071228;28;46921;-75
2022/02/19 04:08:41;;;;;;;;;5.50;0.50;;;;;7.33;60.91;101524.56;5073336;28;49740;-75
2022/02/19 04:11:06;;;;;;;;;0.00;0.00;;;;;7.33;61.05;101525.47;5070454;28;54192;-75
2022/02/19 04:13:31;;;;;;;;;3.00;0.00;;;;;7.32;60.89;101531.56;5057742;28;45382;-75
2022/02/19 04:15:57;;;;;;;;;1.50;0.00;;;;;7.31;61.33;101542.91;5066891;28;58802;-75
2022/02/19 04:18:22;;;;;;;;;0.00;0.00;;;;;7.24;61.35;101530.38;5073794;27;57923;-75
2022/02/19 04:20:48;;;;;;;;;2.00;0.75;;;;;7.23;61.06;101528.59;5067727;27;52109;-75
2022/02/19 04:23:13;;;;;;;;;0.50;0.00;;;;;7.29;61.21;101547.19;5066424;28;45427;-75
2022/02/19 04:25:38;;;;;;;;;1.25;0.00;;;;;7.29;61.00;101544.56;5065090;28;47503;-75
2022/02/19 04:28:06;;;;;;;;;0.75;0.00;;;;;7.30;61.17;101543.75;5070591;28;45438;-75
2022/02/19 04:30:31;;;;;;;;;1.25;0.00;;;;;7.32;61.24;101560.47;5070830;28;45467;-75
2022/02/19 04:32:58;;;;;;;;;2.25;0.00;;;;;7.35;61.21;101555.31;5067013;28;45296;-76
2022/02/19 04:35:24;;;;;;;;;0.75;0.00;;;;;7.38;61.00;101561.53;5069028;28;46608;-75
2022/02/19 04:37:49;;;;;;;;;0.00;0.00;;;;;7.40;61.09;101571.22;5056137;28;45408;-75
2022/02/19 04:40:15;;;;;;;;;1.00;0.00;;;;;7.29;60.97;101562.97;5056604;28;53942;-75
2022/02/19 04:42:41;;;;;;;;;0.00;0.00;;;;;7.35;61.09;101589.47;5068112;28;45528;-75
2022/02/19 04:45:07;;;;;;;;;1.25;0.00;;;;;7.36;61.21;101587.75;5062101;28;47392;-75
2022/02/19 04:47:34;;;;;;;;;0.50;0.00;;;;;7.39;61.09;101594.81;5067051;28;45559;-75
2022/02/19 04:49:59;;;;;;;;;6.50;0.00;;;;;7.39;60.91;101595.72;5041913;28;45280;-75
2022/02/19 04:52:25;;;;;;;;;2.00;0.00;;;;;7.33;61.00;101590.25;5064412;28;45529;-75
2022/02/19 04:54:50;;;;;;;;;1.00;0.00;;;;;7.38;61.29;101603.56;5059122;28;55972;-75
2022/02/19 04:57:15;;;;;;;;;1.25;0.50;;;;;7.37;60.88;101615.81;5075172;28;58839;-75
2022/02/19 04:59:41;;;;;;;;;0.00;0.00;;;;;7.36;61.13;101616.63;5078460;28;50293;-75
2022/02/19 05:02:06;;;;;;;;;2.50;0.00;;;;;7.37;60.95;101612.28;5077710;28;55015;-75
2022/02/19 05:04:32;;;;;;;;;0.00;0.00;;;;;7.38;61.17;101614.94;5072882;28;47243;-75
2022/02/19 05:06:57;;;;;;;;;0.00;0.00;;;;;7.40;61.11;101615.88;5077201;28;45334;-75
2022/02/19 05:09:22;;;;;;;;;0.00;0.00;;;;;7.39;60.88;101622.00;5070508;28;55858;-75
2022/02/19 05:11:48;;;;;;;;;1.75;1.00;;;;;7.38;61.11;101621.94;5077277;28;45349;-75
2022/02/19 05:14:13;;;;;;;;;0.00;0.00;;;;;7.37;60.93;101621.06;5071455;28;60568;-75
2022/02/19 05:16:39;;;;;;;;;0.50;0.00;;;;;7.37;60.90;101618.44;5067028;28;61938;-75
2022/02/19 05:19:04;;;;;;;;;3.75;0.00;;;;;7.35;61.37;101613.13;5068264;27;45624;-75
2022/02/19 05:21:29;;;;;;;;;2.50;0.00;;;;;7.30;61.01;101619.94;5068670;28;45461;-75
2022/02/19 05:23:55;;;;;;;;;1.00;0.00;;;;;7.35;60.91;101630.63;5064449;28;46480;-75
2022/02/19 05:26:20;;;;;;;;;2.50;0.25;;;;;7.37;61.04;101638.56;5072274;28;57164;-75
2022/02/19 05:28:46;;;;;;;;;0.00;0.00;;;;;7.35;61.14;101638.50;5066210;28;45695;-76
2022/02/19 05:31:12;;;;;;;;;5.00;1.00;;;;;7.35;61.19;101628.88;5058809;28;45500;-75
2022/02/19 05:33:38;;;;;;;;;1.00;0.00;;;;;7.33;61.24;101625.28;5068468;28;48023;-75
2022/02/19 05:36:03;;;;;;;;;1.75;1.00;;;;;7.33;61.07;101625.28;5064546;28;45239;-75
2022/02/19 05:38:29;;;;;;;;;0.00;0.00;;;;;7.33;60.98;101625.28;5067956;28;53932;-75
2022/02/19 05:40:54;;;;;;;;;2.00;0.00;;;;;7.31;61.04;101623.47;5074264;28;45360;-75
2022/02/19 05:43:20;;;;;;;;;2.25;0.00;;;;;7.30;61.19;101626.94;5066573;28;62712;-75
2022/02/19 05:45:47;;;;;;;;;2.00;0.00;;;;;7.28;61.04;101625.97;5069338;28;45288;-75
2022/02/19 05:48:13;;;;;;;;;1.00;0.00;;;;;7.27;60.99;101624.19;5067775;28;45445;-75
2022/02/19 05:50:38;;;;;;;;;2.00;0.00;;;;;7.27;61.24;101630.31;5068391;28;45151;-75
2022/02/19 05:53:04;;;;;;;;;1.25;0.00;;;;;7.20;61.08;101620.44;5065296;28;54265;-75
2022/02/19 05:55:30;;;;;;;;;1.00;1.00;;;;;7.17;61.03;101622.94;5062859;28;45388;-75
2022/02/19 05:57:56;;;;;;;;;0.50;0.00;;;;;7.16;61.34;101625.50;5061785;28;45521;-75
2022/02/19 06:00:22;;;;;;;;;1.25;1.00;;;;;7.16;61.18;101636.00;5077511;28;45418;-75
2022/02/19 06:02:47;;;;;;;;;0.00;0.00;;;;;7.14;61.37;101625.47;5069530;28;47673;-75
2022/02/19 06:05:13;;;;;;;;;0.00;0.00;;;;;7.16;61.53;101625.50;5073891;28;45529;-75
2022/02/19 06:07:38;;;;;;;;;0.00;0.00;;;;;7.16;61.33;101630.75;5072886;28;45330;-75
2022/02/19 06:10:04;;;;;;;;;0.00;0.00;;;;;7.12;61.28;101623.59;5070128;28;46029;-75
2022/02/19 06:12:29;;;;;;;;;1.00;0.00;;;;;7.12;61.37;101624.50;5073423;28;46659;-75
2022/02/19 06:14:55;;;;;;;;;2.00;0.00;;;;;7.13;61.48;101638.50;5063206;28;45579;-75
2022/02/19 06:17:20;;;;;;;;;2.75;1.00;;;;;7.15;61.30;101627.25;5067434;27;51504;-75
2022/02/19 06:19:45;;;;;;;;;0.00;0.00;;;;;7.14;61.53;101637.66;5072149;27;45446;-75
2022/02/19 06:22:11;;;;;;;;;4.50;0.00;;;;;7.15;61.34;101634.22;5063958;28;60234;-75
2022/02/19 06:24:38;;;;;;;;;1.75;0.00;;;;;7.16;61.39;101634.28;5067301;28;45579;-75
2022/02/19 06:27:05;;;;;;;;;1.25;0.00;;;;;7.17;61.47;101635.19;5070713;28;45323;-75
2022/02/19 06:29:30;;;;;;;;;5.00;0.00;;;;;7.16;61.49;101629.03;5075497;28;45509;-75
2022/02/19 06:31:56;;;;;;;;;2.00;0.75;;;;;7.16;61.35;101633.38;5069893;28;47284;-75
2022/02/19 06:34:21;;;;;;;;;1.00;1.00;;;;;7.16;61.50;101652.66;5066613;28;58456;-75
2022/02/19 06:36:47;;;;;;;;;5.00;0.00;;;;;7.17;61.44;101659.69;5061415;28;52249;-75
2022/02/19 06:39:12;;;;;;;;;1.50;0.00;;;;;7.17;61.28;101658.81;5064578;28;45515;-75
2022/02/19 06:41:37;;;;;;;;;0.00;0.00;;;;;7.15;61.57;101660.50;5075972;28;47328;-75
2022/02/19 06:44:03;;;;;;;;;2.00;0.00;;;;;7.13;61.41;101656.91;5060940;28;59829;-75
2022/02/19 06:46:29;;;;;;;;;5.00;0.00;;;;;7.12;61.35;101658.63;5066034;28;45419;-75
2022/02/19 06:48:54;;;;;;;;;0.75;0.50;;;;;7.10;61.43;101670.81;5065277;28;45715;-75
2022/02/19 06:51:20;;;;;;;;;0.75;0.00;;;;;7.08;61.37;101664.59;5065329;28;46831;-75
2022/02/19 06:53:45;;;;;;;;;0.00;0.00;;;;;7.05;61.54;101675.00;5060659;28;49825;-75
2022/02/19 06:56:10;;;;;;;;;1.00;0.00;;;;;7.08;61.37;101686.53;5061106;28;58855;-75
2022/02/19 06:58:36;;;;;;;;;0.00;0.00;;;;;7.12;61.51;101697.13;5062848;28;45368;-75
2022/02/19 07:01:01;;;;;;;;;5.00;1.00;;;;;7.12;61.40;101687.53;5074388;28;46376;-75
2022/02/19 07:03:27;;;;;;;;;2.00;0.00;;;;;7.11;61.48;101698.88;5068053;28;45444;-75
2022/02/19 07:05:54;;;;;;;;;2.00;0.00;;;;;7.14;61.47;101700.69;5073595;28;45403;-75
2022/02/19 07:08:20;;;;;;;;;0.75;0.00;;;;;7.10;61.58;101686.56;5076351;28;45615;-75
2022/02/19 07:10:46;;;;;;;;;3.00;1.00;;;;;7.00;61.52;101674.81;5067862;28;47276;-75
2022/02/19 07:13:12;;;;;;;;;0.25;0.00;;;;;7.11;61.48;101698.88;5067841;28;45513;-75
2022/02/19 07:15:37;;;;;;;;;2.00;0.00;;;;;7.18;61.46;101707.88;5076171;28;45457;-75
2022/02/19 07:18:03;;;;;;;;;3.00;0.00;;;;;7.18;61.49;101703.50;5072089;27;51996;-75
2022/02/19 07:20:28;;;;;;;;;1.00;0.00;;;;;7.20;61.39;101715.00;5064411;28;62832;-76
2022/02/19 07:22:53;;;;;;;;;2.75;1.50;;;;;7.20;61.20;101709.75;5039937;28;45476;-76
2022/02/19 07:25:19;;;;;;;;;2.50;0.00;;;;;7.19;61.59;101707.94;5061446;28;55703;-80
2022/02/19 07:27:45;;;;;;;;;5.00;0.00;;;;;7.13;61.77;101718.19;5072499;27;45362;-76
2022/02/19 07:30:16;;;;;;;;;5.75;1.75;;;;;7.05;61.98;101717.91;5054732;28;45896;-78
2022/02/19 07:32:41;;;;;;;;;1.75;1.00;;;;;7.02;61.90;101719.50;5068478;28;45528;-79
2022/02/19 07:35:07;;;;;;;;;2.75;0.00;;;;;6.98;62.05;101726.38;5067849;28;48183;-77
2022/02/19 07:37:34;;;;;;;;;2.00;1.00;;;;;6.95;62.41;101728.88;5072299;28;45456;-76
2022/02/19 07:39:59;;;;;;;;;2.00;1.00;;;;;6.91;62.16;101731.31;5074227;27;46709;-77
2022/02/19 07:42:24;;;;;;;;;0.50;0.00;;;;;6.85;62.16;101746.81;5059258;28;58879;-77
2022/02/19 07:44:51;;;;;;;;;0.00;0.00;;;;;6.81;62.69;101736.19;5054249;28;45577;-77
2022/02/19 07:47:30;;;;;;;;;2.75;0.00;;;;;6.81;63.03;101753.66;5072307;28;45545;-78
2022/02/19 07:58:23;;;;;;;;;2.00;0.00;;;;;6.75;63.14;101764.81;5061211;28;45365;-77
2022/02/19 08:00:56;;;;;;;;;1.00;1.00;;;;;6.75;62.97;101767.44;5060832;28;46823;-77
2022/02/19 08:03:23;;;;;;;;;1.00;0.00;;;;;6.75;63.16;101771.78;5073338;28;45559;-76
2022/02/19 08:05:49;;;;;;;;;3.25;0.25;;;;;6.78;63.15;101785.06;5070361;28;45338;-77
2022/02/19 08:08:14;;;;;;;;;4.50;0.75;;;;;6.74;63.12;101768.28;5056619;28;45435;-78
2022/02/19 08:10:40;;;;;;;;;5.00;1.00;;;;;6.78;63.28;101779.81;5069037;27;46481;-77
2022/02/19 08:13:08;;;;;;;;;4.25;0.25;;;;;6.76;63.40;101773.56;5053695;28;45175;-78
2022/02/19 08:15:36;;;;;;;;;1.75;0.00;;;;;6.80;62.86;101765.88;5071773;28;45267;-79
2022/02/19 08:18:03;;;;;;;;;6.25;0.00;;;;;6.79;63.24;101763.22;5079351;27;45449;-77
2022/02/19 08:20:30;;;;;;;;;2.75;0.00;;;;;6.87;63.15;101772.31;5065398;28;46580;-77
2022/02/19 08:22:55;;;;;;;;;2.00;1.00;;;;;6.91;62.82;101775.94;5071923;28;45345;-75
2022/02/19 08:25:21;;;;;;;;;2.50;0.00;;;;;6.94;62.75;101771.72;5078136;28;58322;-74
2022/02/19 08:27:46;;;;;;;;;2.75;1.00;;;;;6.94;63.19;101769.09;5071029;28;46978;-76
2022/02/19 08:30:11;;;;;;;;;1.50;0.50;;;;;7.00;62.96;101771.06;5075601;28;58455;-76
2022/02/19 08:32:37;;;;;;;;;4.00;1.00;;;;;7.08;62.57;101775.81;5064074;28;46406;-77
2022/02/19 08:35:02;;;;;;;;;0.50;0.50;;;;;7.14;62.67;101771.59;5062701;28;50017;-76
2022/02/19 08:37:29;;;;;;;;;2.50;1.00;;;;;7.19;62.38;101767.44;5078833;28;45292;-75
2022/02/19 08:39:54;;;;;;;;;2.00;0.25;;;;;7.31;62.06;101767.94;5078486;28;46737;-74
2022/02/19 08:42:20;;;;;;;;;1.00;1.00;;;;;7.41;62.22;101777.09;5076062;28;58111;-76
2022/02/19 08:44:45;;;;;;;;;0.75;0.75;;;;;7.44;61.90;101770.19;5078359;28;53533;-75
2022/02/19 08:47:10;;;;;;;;;1.25;1.00;;;;;7.49;61.91;101779.16;5074190;28;45361;-76
2022/02/19 08:49:36;;;;;;;;;3.50;0.75;;;;;7.50;61.77;101772.16;5068606;28;60139;-74
2022/02/19 08:52:01;;;;;;;;;1.25;0.25;;;;;7.50;61.26;101756.41;5062025;28;45305;-78
2022/02/19 08:54:27;;;;;;;;;0.50;0.00;;;;;7.56;61.43;101780.28;5074201;28;45256;-75
2022/02/19 08:56:53;;;;;;;;;3.00;0.00;;;;;7.68;61.00;101791.28;5060654;28;54214;-74
2022/02/19 08:59:18;;;;;;;;;1.00;0.00;;;;;7.67;60.64;101793.81;5070594;28;46324;-76
2022/02/19 09:01:44;;;;;;;;;6.00;1.00;;;;;7.69;61.03;101789.53;5064888;28;45435;-75
2022/02/19 09:04:10;;;;;;;;;1.75;0.00;;;;;7.64;61.00;101781.47;5061815;28;45743;-75
2022/02/19 09:06:36;;;;;;;;;6.75;2.00;;;;;7.73;60.84;101791.47;5068499;28;45407;-75
2022/02/19 09:09:04;;;;;;;;;1.50;0.00;;;;;7.77;60.73;101810.00;5070767;28;47529;-75
2022/02/19 09:11:29;;;;;;;;;2.25;1.25;;;;;7.81;60.75;101809.28;5048670;27;46629;-75
2022/02/19 09:13:55;;;;;;;;;4.00;0.00;;;;;7.83;60.85;101809.38;5071906;28;55890;-75
2022/02/19 09:16:21;;;;;;;;;2.50;0.00;;;;;7.86;60.69;101807.72;5077027;28;45366;-76
2022/02/19 09:18:47;;;;;;;;;6.00;2.00;;;;;7.91;60.86;101813.16;5076536;27;47579;-76
2022/02/19 09:21:12;;;;;;;;;0.75;0.00;;;;;7.95;60.56;101807.19;5074633;28;58843;-75
2022/02/19 09:23:37;;;;;;;;;1.75;0.00;;;;;7.98;60.57;101812.53;5069516;28;45454;-76
2022/02/19 09:26:03;;;;;;;;;1.50;0.25;;;;;8.02;60.59;101801.31;5067238;28;54034;-76
2022/02/19 09:28:28;;;;;;;;;3.50;0.50;;;;;8.03;60.68;101792.56;5069453;28;48655;-76
2022/02/19 09:30:54;;;;;;;;;2.25;0.00;;;;;8.08;60.49;101798.91;5067591;28;46131;-75
2022/02/19 09:33:19;;;;;;;;;0.25;0.25;;;;;8.13;60.50;101789.44;5071444;28;45293;-75
2022/02/19 09:35:44;;;;;;;;;3.00;0.00;;;;;8.13;60.12;101781.56;5073270;28;45204;-73
2022/02/19 09:38:10;;;;;;;;;3.00;1.00;;;;;8.12;60.06;101787.66;5077416;28;52245;-74
2022/02/19 09:40:35;;;;;;;;;3.50;1.00;;;;;8.06;59.70;101782.19;5065752;28;59207;-74
2022/02/19 09:43:00;;;;;;;;;2.00;0.00;;;;;8.02;59.94;101782.00;5066488;28;53736;-74
2022/02/19 09:45:29;;;;;;;;;2.50;0.50;;;;;8.06;60.56;101779.56;5076537;28;53336;-75
2022/02/19 09:47:58;;;;;;;;;2.00;0.50;;;;;8.12;60.18;101787.66;5044408;28;46514;-76
2022/02/19 09:50:26;;;;;;;;;0.00;0.00;;;;;8.15;59.82;101776.38;5075229;28;45515;-76
2022/02/19 09:52:52;;;;;;;;;0.00;0.00;;;;;8.26;60.20;101790.81;5063858;28;45525;-76
2022/02/19 09:55:17;;;;;;;;;7.00;0.00;;;;;8.32;60.11;101795.38;5064385;28;51908;-75
2022/02/19 09:57:43;;;;;;;;;5.50;2.00;;;;;8.35;60.16;101791.09;5067613;28;46451;-76
2022/02/19 10:00:08;;;;;;;;;1.75;1.00;;;;;8.43;59.89;101785.28;5067860;28;57996;-76
2022/02/19 10:02:35;;;;;;;;;3.67;1.00;;;;;8.49;59.51;101777.59;5062813;28;45447;-76
2022/02/19 10:05:13;;;;;;;;;2.33;0.00;;;;;8.59;59.21;101788.47;5076205;28;45305;-76
2022/02/19 10:07:39;;;;;;;;;2.50;0.00;;;;;8.57;59.14;101771.72;5071618;27;47538;-75
2022/02/19 10:10:05;;;;;;;;;1.00;1.00;;;;;8.67;59.09;101767.66;5049312;28;45493;-75
2022/02/19 10:12:44;;;;;;;;;2.25;1.00;;;;;8.77;59.19;101768.88;5062296;28;45733;-76
2022/02/19 10:15:09;;;;;;;;;2.75;0.00;;;;;8.85;58.80;101768.28;5060905;28;45611;-76
2022/02/19 10:17:37;;;;;;;;;6.00;1.00;;;;;8.93;58.64;101771.16;5062517;27;66093;-75
2022/02/19 10:20:07;;;;;;;;;2.50;1.00;;;;;9.01;58.05;101771.44;5082227;27;45363;-75
2022/02/19 10:22:37;;;;;;;;;2.00;0.00;;;;;9.04;57.80;101760.97;5064660;28;45449;-75
2022/02/19 10:25:10;;;;;;;;;4.33;0.00;;;;;9.15;57.55;101760.47;5065635;28;45663;-75
2022/02/19 10:27:39;;;;;;;;;0.00;0.00;;;;;9.23;56.60;101759.84;5070734;28;46547;-75
2022/02/19 10:30:05;;;;;;;;;2.33;0.00;;;;;9.23;57.21;101746.66;5071261;28;45186;-75
2022/02/19 10:32:30;;;;;;;;;1.33;0.00;;;;;9.31;57.00;101761.84;5067401;28;45430;-75
2022/02/19 10:35:01;;;;;;;;;0.00;0.00;;;;;9.33;55.49;101760.16;5037094;27;58756;-76
2022/02/19 10:37:30;;;;;;;;;0.00;0.00;;;;;9.40;56.60;101755.97;5075334;27;47320;-76
2022/02/19 10:39:57;;;;;;;;;2.33;0.33;;;;;9.39;56.77;101746.28;5075310;28;45459;-75
2022/02/19 10:42:34;;;;;;;;;2.00;0.33;;;;;9.49;54.91;101750.09;5064577;28;45518;-75
2022/02/19 10:45:06;;;;;;;;;3.67;0.00;;;;;9.59;55.61;101750.41;5057659;28;45188;-75
2022/02/19 10:47:31;;;;;;;;;3.00;1.00;;;;;9.70;55.97;101745.47;5056749;28;46671;-75
2022/02/19 10:50:05;;;;;;;;;3.33;0.00;;;;;9.82;55.23;101744.91;5057472;28;45297;-76
2022/02/19 10:52:31;;;;;;;;;2.00;0.00;;;;;9.90;55.21;101731.06;5057391;28;45420;-75
2022/02/19 10:55:06;;;;;;;;;2.00;0.00;;;;;10.04;55.42;101749.03;5069537;28;45172;-75
2022/02/19 10:57:45;;;;;;;;;0.00;0.00;;;;;10.03;55.04;101732.31;5059979;28;47267;-75
2022/02/19 11:00:11;;;;;;;;;0.00;0.00;;;;;10.10;53.54;101741.28;5057493;28;45432;-76
2022/02/19 11:02:37;;;;;;;;;3.00;0.00;;;;;10.06;54.09;101739.41;5057781;28;45264;-76
2022/02/19 11:05:02;;;;;;;;;4.00;1.00;;;;;10.10;53.70;101750.09;5057682;28;45305;-75
2022/02/19 11:07:28;;;;;;;;;0.00;0.00;;;;;10.05;53.55;101748.19;5052787;28;46512;-76
2022/02/19 11:09:53;;;;;;;;;1.67;0.00;;;;;10.06;51.54;101744.69;5040760;28;45491;-75
2022/02/19 11:12:19;;;;;;;;;3.00;0.00;;;;;10.10;52.94;101751.84;5064275;28;45907;-76
2022/02/19 11:14:44;;;;;;;;;3.67;2.33;;;;;10.18;51.45;101740.66;5067093;28;45469;-75
2022/02/19 11:17:12;;;;;;;;;0.67;0.67;;;;;10.23;53.09;101740.78;5059955;28;47408;-75
2022/02/19 11:19:38;;;;;;;;;2.00;0.33;;;;;10.29;53.10;101730.44;5070376;27;45268;-75
2022/02/19 11:22:03;;;;;;;;;2.00;0.33;;;;;10.34;52.26;101734.09;5072854;28;45216;-75
2022/02/19 11:24:29;;;;;;;;;2.33;0.00;;;;;10.40;52.84;101728.06;5077346;28;45168;-75
2022/02/19 11:26:55;;;;;;;;;3.00;0.00;;;;;10.41;52.59;101727.22;5067302;28;46619;-75
2022/02/19 11:29:22;;;;;;;;;4.00;0.00;;;;;10.45;51.82;101729.09;5040348;28;45281;-76
2022/02/19 11:31:47;;;;;;;;;3.00;0.00;;;;;10.52;52.17;101724.84;5039083;28;45316;-75
2022/02/19 11:34:13;;;;;;;;;3.00;0.00;;;;;10.52;51.09;101709.00;5044658;28;45811;-76
2022/02/19 11:36:38;;;;;;;;;0.00;0.00;;;;;10.56;52.09;101711.75;5041837;28;47234;-76